createdAt,value
2022-08-29T00:03:08.814Z,83.73
2022-08-29T00:08:11.234Z,83.85
2022-08-29T00:13:14.991Z,85.08
2022-08-29T00:18:20.172Z,85.92
2022-08-29T00:23:22.332Z,86.38
2022-08-29T00:28:24.481Z,88.11
2022-08-29T00:33:27.653Z,88.42
2022-08-29T00:38:30.245Z,88.56
2022-08-29T00:43:36.817Z,88.62
2022-08-29T00:48:41.944Z,89.12
2022-08-29T00:53:46.954Z,89.93
2022-08-29T00:58:53.668Z,89.77
2022-08-29T01:03:57.645Z,90.06
2022-08-29T01:09:00.078Z,89.97
2022-08-29T01:14:03.717Z,90.25
2022-08-29T01:19:18.926Z,90.17
2022-08-29T01:24:35.247Z,90.84
2022-08-29T01:29:37.290Z,91.73
2022-08-29T01:34:40.542Z,91.42
2022-08-29T01:39:45.938Z,91.54
2022-08-29T01:44:50.059Z,91.57
2022-08-29T01:49:53.255Z,91.52
2022-08-29T01:54:56.736Z,91.96
2022-08-29T01:59:59.481Z,92.22
2022-08-29T02:05:01.687Z,91.98
2022-08-29T02:10:06.933Z,92.56
2022-08-29T02:15:09.842Z,91.79
2022-08-29T02:20:12.041Z,92.17
2022-08-29T02:25:15.470Z,92.33
2022-08-29T02:30:17.696Z,92.10
2022-08-29T02:35:19.575Z,91.55
2022-08-29T02:40:25.908Z,91.97
2022-08-29T02:45:37.144Z,91.59
2022-08-29T02:50:41.607Z,91.99
2022-08-29T02:55:46.674Z,92.49
2022-08-29T03:00:48.909Z,92.74
2022-08-29T03:05:50.958Z,93.10
2022-08-29T03:10:54.354Z,93.49
2022-08-29T03:15:56.867Z,93.27
2022-08-29T03:20:59.674Z,94.07
2022-08-29T03:26:03.601Z,94.35
2022-08-29T03:31:06.456Z,93.45
2022-08-29T03:36:13.951Z,93.59
2022-08-29T03:41:23.080Z,94.06
2022-08-29T03:46:25.379Z,94.01
2022-08-29T03:51:29.395Z,94.35
2022-08-29T03:56:33.553Z,94.98
2022-08-29T04:01:35.352Z,95.12
2022-08-29T04:06:37.433Z,94.86
2022-08-29T04:11:40.704Z,94.59
2022-08-29T04:16:42.838Z,93.97
2022-08-29T04:21:45.041Z,93.58
2022-08-29T04:26:48.082Z,94.23
2022-08-29T04:31:49.767Z,93.83
2022-08-29T04:36:52.152Z,93.95
2022-08-29T04:41:55.735Z,93.81
2022-08-29T04:46:57.558Z,93.46
2022-08-29T04:51:59.605Z,92.43
2022-08-29T04:57:05.003Z,92.00
2022-08-29T05:02:09.728Z,90.81
2022-08-29T05:07:11.726Z,89.81
2022-08-29T05:12:15.133Z,88.59
2022-08-29T05:17:17.202Z,87.99
2022-08-29T05:22:20.536Z,87.47
2022-08-29T05:27:24.496Z,86.81
2022-08-29T05:32:26.518Z,86.22
2022-08-29T05:37:28.558Z,86.44
2022-08-29T05:42:31.853Z,85.94
2022-08-29T05:47:34.380Z,85.43
2022-08-29T05:52:36.195Z,85.49
2022-08-29T05:57:39.914Z,84.16
2022-08-29T06:02:42.313Z,83.07
2022-08-29T06:07:44.441Z,82.94
2022-08-29T06:12:51.009Z,82.66
2022-08-29T06:17:52.984Z,82.39
2022-08-29T06:22:54.971Z,81.20
2022-08-29T06:27:58.670Z,81.31
2022-08-29T06:33:01.617Z,81.01
2022-08-29T06:38:03.803Z,79.94
2022-08-29T06:43:07.166Z,80.38
2022-08-29T06:48:09.441Z,81.01
2022-08-29T06:53:27.548Z,80.17
2022-08-29T06:58:36.367Z,79.92
2022-08-29T07:03:38.574Z,79.97
2022-08-29T07:08:55.180Z,80.39
2022-08-29T07:14:00.460Z,80.89
2022-08-29T07:19:04.086Z,80.10
2022-08-29T07:24:07.411Z,79.13
2022-08-29T07:29:13.961Z,79.93
2022-08-29T07:34:15.957Z,79.58
2022-08-29T07:39:19.330Z,78.53
2022-08-29T07:44:22.654Z,77.79
2022-08-29T07:49:29.378Z,76.44
2022-08-29T07:54:43.939Z,77.03
2022-08-29T07:59:47.588Z,77.00
2022-08-29T08:04:52.383Z,76.97
2022-08-29T08:09:54.402Z,76.54
2022-08-29T08:14:57.958Z,75.36
2022-08-29T08:20:00.018Z,76.17
2022-08-29T08:25:02.322Z,76.78
2022-08-29T08:30:07.144Z,77.22
2022-08-29T08:35:10.515Z,75.60
2022-08-29T08:40:21.420Z,72.37
2022-08-29T08:45:29.131Z,73.35
2022-08-29T08:50:42.442Z,72.92
2022-08-29T08:55:47.389Z,72.92
2022-08-29T09:00:56.684Z,73.04
2022-08-29T09:06:10.181Z,72.99
2022-08-29T09:11:19.129Z,70.13
2022-08-29T09:16:27.533Z,71.63
2022-08-29T09:21:41.850Z,71.50
2022-08-29T09:26:44.834Z,71.81
2022-08-29T09:32:04.947Z,72.71
2022-08-29T09:37:21.705Z,71.07
2022-08-29T09:42:24.036Z,72.30
2022-08-29T09:47:29.551Z,71.15
2022-08-29T09:52:32.156Z,70.84
2022-08-29T09:57:40.182Z,70.07
2022-08-29T10:02:47.164Z,71.52
2022-08-29T10:07:51.421Z,71.50
2022-08-29T10:13:00.046Z,71.81
2022-08-29T10:18:09.856Z,72.60
2022-08-29T10:23:24.504Z,69.84
2022-08-29T10:28:40.630Z,69.69
2022-08-29T10:33:59.217Z,70.98
2022-08-29T10:39:12.193Z,70.55
2022-08-29T10:44:30.567Z,68.27
2022-08-29T10:49:46.635Z,68.95
2022-08-29T10:54:59.263Z,68.39
2022-08-29T11:00:05.687Z,66.64
2022-08-29T11:05:21.699Z,64.46
2022-08-29T11:10:27.627Z,63.50
2022-08-29T11:15:36.241Z,66.34
2022-08-29T11:20:47.224Z,64.26
2022-08-29T11:25:49.559Z,65.64
2022-08-29T11:30:58.439Z,66.56
2022-08-29T11:36:19.780Z,67.00
2022-08-29T11:41:28.903Z,66.52
2022-08-29T11:46:42.419Z,65.48
2022-08-29T11:51:49.139Z,63.54
2022-08-29T11:56:51.327Z,61.89
2022-08-29T12:01:59.712Z,60.71
2022-08-29T12:07:04.775Z,61.51
2022-08-29T12:12:36.503Z,61.66
2022-08-29T12:18:01.406Z,59.34
2022-08-29T12:23:18.118Z,57.49
2022-08-29T12:28:42.986Z,59.13
2022-08-29T12:33:59.013Z,59.56
2022-08-29T12:39:14.201Z,58.48
2022-08-29T12:44:27.087Z,58.65
2022-08-29T12:49:35.127Z,59.21
2022-08-29T12:54:40.583Z,59.31
2022-08-29T12:59:44.751Z,58.67
2022-08-29T13:04:46.748Z,57.40
2022-08-29T13:09:55.171Z,56.47
2022-08-29T13:14:59.550Z,58.73
2022-08-29T13:20:39.524Z,56.81
2022-08-29T13:25:48.720Z,57.06
2022-08-29T13:31:21.548Z,57.03
2022-08-29T13:36:31.729Z,56.70
2022-08-29T13:41:34.863Z,55.94
2022-08-29T13:46:37.820Z,56.15
2022-08-29T13:51:39.604Z,54.85
2022-08-29T13:56:43.471Z,53.86
2022-08-29T14:07:09.040Z,54.20
2022-08-29T14:12:13.130Z,54.74
2022-08-29T14:17:18.464Z,54.34
2022-08-29T14:22:20.660Z,53.48
2022-08-29T14:27:23.729Z,51.79
2022-08-29T14:32:26.856Z,53.51
2022-08-29T14:37:28.832Z,52.61
2022-08-29T14:42:31.978Z,53.53
2022-08-29T14:47:33.824Z,53.55
2022-08-29T14:52:35.908Z,52.06
2022-08-29T14:57:39.270Z,52.45
2022-08-29T15:02:42.138Z,52.31
2022-08-29T15:07:44.581Z,50.96
2022-08-29T15:12:47.852Z,52.12
2022-08-29T15:17:49.533Z,51.81
2022-08-29T15:22:51.233Z,49.80
2022-08-29T15:27:54.270Z,50.16
2022-08-29T15:32:56.477Z,50.71
2022-08-29T15:37:58.261Z,49.41
2022-08-29T15:43:01.595Z,50.10
2022-08-29T15:48:04.260Z,49.13
2022-08-29T15:53:13.850Z,50.76
2022-08-29T15:58:17.420Z,50.47
2022-08-29T16:03:19.488Z,50.19
2022-08-29T16:08:22.459Z,51.56
2022-08-29T16:13:33.514Z,51.10
2022-08-29T16:18:36.026Z,49.62
2022-08-29T16:23:38.422Z,50.15
2022-08-29T16:28:41.976Z,51.50
2022-08-29T16:33:45.550Z,51.30
2022-08-29T16:38:47.388Z,53.02
2022-08-29T16:43:51.457Z,52.74
2022-08-29T16:48:53.540Z,52.67
2022-08-29T16:53:59.949Z,53.86
2022-08-29T16:59:03.398Z,54.29
2022-08-29T17:04:07.066Z,54.54
2022-08-29T17:09:10.053Z,54.97
2022-08-29T17:14:14.949Z,56.33
2022-08-29T17:19:17.923Z,56.25
2022-08-29T17:24:20.983Z,56.40
2022-08-29T17:29:24.146Z,58.93
2022-08-29T17:34:25.831Z,58.87
2022-08-29T17:39:29.019Z,59.11
2022-08-29T17:44:34.578Z,59.87
2022-08-29T17:49:36.616Z,62.53
2022-08-29T17:54:38.349Z,62.98
2022-08-29T17:59:42.066Z,64.71
2022-08-29T18:04:44.354Z,65.14
2022-08-29T18:09:46.151Z,67.46
2022-08-29T18:14:50.087Z,68.08
2022-08-29T18:19:51.892Z,69.97
2022-08-29T18:24:53.722Z,70.03
2022-08-29T18:29:57.079Z,71.49
2022-08-29T18:35:00.902Z,72.00
2022-08-29T18:40:04.560Z,72.95
2022-08-29T18:45:08.840Z,73.38
2022-08-29T18:50:11.033Z,74.80
2022-08-29T18:55:15.701Z,74.85
2022-08-29T19:00:19.703Z,76.67
2022-08-29T19:05:22.624Z,77.68
2022-08-29T19:10:25.879Z,78.04
2022-08-29T19:15:30.826Z,78.76
2022-08-29T19:20:33.403Z,79.01
2022-08-29T19:25:35.719Z,78.71
2022-08-29T19:30:39.115Z,79.16
2022-08-29T19:35:41.151Z,79.62
2022-08-29T19:40:43.218Z,80.45
2022-08-29T19:45:46.555Z,80.92
2022-08-29T19:50:48.318Z,80.57
2022-08-29T19:55:51.111Z,81.07
2022-08-29T20:00:54.282Z,81.69
2022-08-29T20:05:57.789Z,81.76
2022-08-29T20:10:59.481Z,82.59
2022-08-29T20:16:08.134Z,83.29
2022-08-29T20:21:11.640Z,83.83
2022-08-29T20:26:15.814Z,84.99
2022-08-29T20:31:20.046Z,85.17
2022-08-29T20:36:23.108Z,85.59
2022-08-29T20:41:25.304Z,85.64
2022-08-29T20:46:28.796Z,85.59
2022-08-29T20:51:30.536Z,86.28
2022-08-29T20:56:32.943Z,86.40
2022-08-29T21:01:37.269Z,86.34
2022-08-29T21:06:39.541Z,87.26
2022-08-29T21:11:41.712Z,86.87
2022-08-29T21:16:44.978Z,87.12
2022-08-29T21:21:47.503Z,86.63
2022-08-29T21:26:50.701Z,87.21
2022-08-29T21:31:53.719Z,86.92
2022-08-29T21:36:55.397Z,86.99
2022-08-29T21:42:02.498Z,86.38
2022-08-29T21:47:07.090Z,86.42
2022-08-29T21:52:09.108Z,86.69
2022-08-29T21:57:11.153Z,86.48
2022-08-29T22:02:16.297Z,87.16
2022-08-29T22:07:18.227Z,86.92
2022-08-29T22:12:20.751Z,86.98
2022-08-29T22:17:24.313Z,87.32
2022-08-29T22:22:26.204Z,87.59
2022-08-29T22:27:28.652Z,87.89
2022-08-29T22:32:35.768Z,87.75
2022-08-29T22:37:38.155Z,88.53
2022-08-29T22:42:43.214Z,88.45
2022-08-29T22:47:46.855Z,88.47
2022-08-29T22:52:49.503Z,88.84
2022-08-29T22:57:51.471Z,89.25
2022-08-29T23:02:54.583Z,89.73
2022-08-29T23:07:56.344Z,89.82
2022-08-29T23:12:58.374Z,90.19
2022-08-29T23:18:01.841Z,89.98
2022-08-29T23:23:03.876Z,90.23
2022-08-29T23:28:10.692Z,90.51
2022-08-29T23:33:14.878Z,90.21
2022-08-29T23:38:17.000Z,90.43
2022-08-29T23:43:20.317Z,90.80
2022-08-29T23:48:25.976Z,91.71
2022-08-29T23:53:28.299Z,91.73
2022-08-29T23:58:30.387Z,91.51
